sensor_id;sensor_type;location;lat;lon;timestamp;P1;durP1;ratioP1;P2;durP2;ratioP2
51862;SDS011;37900;52.996;6.278;2022-07-05T00:01:47;3.10;;;1.77;;
51862;SDS011;37900;52.996;6.278;2022-07-05T00:04:13;2.80;;;1.92;;
51862;SDS011;37900;52.996;6.278;2022-07-05T00:06:39;4.25;;;2.13;;
51862;SDS011;37900;52.996;6.278;2022-07-05T00:09:24;3.47;;;1.85;;
51862;SDS011;37900;52.996;6.278;2022-07-05T00:11:50;4.72;;;2.65;;
51862;SDS011;37900;52.996;6.278;2022-07-05T00:14:16;3.55;;;1.90;;
51862;SDS011;37900;52.996;6.278;2022-07-05T00:16:41;2.70;;;1.70;;
51862;SDS011;37900;52.996;6.278;2022-07-05T00:19:07;3.47;;;2.00;;
51862;SDS011;37900;52.996;6.278;2022-07-05T00:21:33;3.90;;;2.05;;
51862;SDS011;37900;52.996;6.278;2022-07-05T00:23:59;2.40;;;1.75;;
51862;SDS011;37900;52.996;6.278;2022-07-05T00:26:24;2.80;;;1.70;;
51862;SDS011;37900;52.996;6.278;2022-07-05T00:28:50;2.30;;;1.83;;
51862;SDS011;37900;52.996;6.278;2022-07-05T00:31:16;3.42;;;1.70;;
51862;SDS011;37900;52.996;6.278;2022-07-05T00:33:41;2.30;;;1.75;;
51862;SDS011;37900;52.996;6.278;2022-07-05T00:36:07;3.25;;;1.60;;
51862;SDS011;37900;52.996;6.278;2022-07-05T00:38:33;2.10;;;1.60;;
51862;SDS011;37900;52.996;6.278;2022-07-05T00:40:59;2.78;;;1.85;;
51862;SDS011;37900;52.996;6.278;2022-07-05T00:43:24;3.50;;;1.88;;
51862;SDS011;37900;52.996;6.278;2022-07-05T00:45:50;3.22;;;2.00;;
51862;SDS011;37900;52.996;6.278;2022-07-05T00:48:16;2.95;;;1.90;;
51862;SDS011;37900;52.996;6.278;2022-07-05T00:50:41;2.67;;;1.40;;
51862;SDS011;37900;52.996;6.278;2022-07-05T00:53:07;3.63;;;1.80;;
51862;SDS011;37900;52.996;6.278;2022-07-05T00:55:33;2.58;;;1.63;;
51862;SDS011;37900;52.996;6.278;2022-07-05T00:57:59;2.58;;;1.80;;
51862;SDS011;37900;52.996;6.278;2022-07-05T01:00:25;4.18;;;2.35;;
51862;SDS011;37900;52.996;6.278;2022-07-05T01:02:51;1.92;;;1.70;;
51862;SDS011;37900;52.996;6.278;2022-07-05T01:05:17;3.55;;;1.90;;
51862;SDS011;37900;52.996;6.278;2022-07-05T01:07:43;4.03;;;1.80;;
51862;SDS011;37900;52.996;6.278;2022-07-05T01:10:09;2.40;;;1.80;;
51862;SDS011;37900;52.996;6.278;2022-07-05T01:12:39;3.22;;;1.92;;
51862;SDS011;37900;52.996;6.278;2022-07-05T01:15:06;2.85;;;1.67;;
51862;SDS011;37900;52.996;6.278;2022-07-05T01:17:33;2.80;;;1.58;;
51862;SDS011;37900;52.996;6.278;2022-07-05T01:20:02;2.13;;;1.38;;
51862;SDS011;37900;52.996;6.278;2022-07-05T01:22:53;2.63;;;1.63;;
51862;SDS011;37900;52.996;6.278;2022-07-05T01:25:25;3.00;;;1.70;;
51862;SDS011;37900;52.996;6.278;2022-07-05T01:27:52;2.60;;;1.50;;
51862;SDS011;37900;52.996;6.278;2022-07-05T01:32:46;4.32;;;1.90;;
51862;SDS011;37900;52.996;6.278;2022-07-05T01:35:12;2.43;;;1.60;;
51862;SDS011;37900;52.996;6.278;2022-07-05T01:37:39;2.38;;;1.65;;
51862;SDS011;37900;52.996;6.278;2022-07-05T01:40:05;2.60;;;1.65;;
51862;SDS011;37900;52.996;6.278;2022-07-05T01:42:32;2.28;;;1.63;;
51862;SDS011;37900;52.996;6.278;2022-07-05T01:44:58;2.60;;;1.73;;
51862;SDS011;37900;52.996;6.278;2022-07-05T01:47:24;1.25;;;1.15;;
51862;SDS011;37900;52.996;6.278;2022-07-05T01:49:51;3.08;;;1.90;;
51862;SDS011;37900;52.996;6.278;2022-07-05T01:52:20;2.03;;;1.45;;
51862;SDS011;37900;52.996;6.278;2022-07-05T01:54:47;2.90;;;1.70;;
51862;SDS011;37900;52.996;6.278;2022-07-05T01:57:13;2.63;;;1.98;;
51862;SDS011;37900;52.996;6.278;2022-07-05T01:59:39;2.53;;;1.70;;
51862;SDS011;37900;52.996;6.278;2022-07-05T02:02:05;2.65;;;1.77;;
51862;SDS011;37900;52.996;6.278;2022-07-05T02:06:58;2.35;;;1.30;;
51862;SDS011;37900;52.996;6.278;2022-07-05T02:09:24;1.95;;;1.80;;
51862;SDS011;37900;52.996;6.278;2022-07-05T02:11:50;3.17;;;1.50;;
51862;SDS011;37900;52.996;6.278;2022-07-05T02:14:16;2.53;;;1.47;;
51862;SDS011;37900;52.996;6.278;2022-07-05T02:16:42;2.78;;;1.95;;
51862;SDS011;37900;52.996;6.278;2022-07-05T02:19:08;2.10;;;1.77;;
51862;SDS011;37900;52.996;6.278;2022-07-05T02:21:33;1.83;;;1.42;;
51862;SDS011;37900;52.996;6.278;2022-07-05T02:23:59;2.42;;;1.50;;
51862;SDS011;37900;52.996;6.278;2022-07-05T02:26:25;2.08;;;1.45;;
51862;SDS011;37900;52.996;6.278;2022-07-05T02:28:50;2.33;;;1.55;;
51862;SDS011;37900;52.996;6.278;2022-07-05T02:31:16;2.70;;;1.83;;
51862;SDS011;37900;52.996;6.278;2022-07-05T02:33:42;2.95;;;1.55;;
51862;SDS011;37900;52.996;6.278;2022-07-05T02:36:08;2.72;;;1.60;;
51862;SDS011;37900;52.996;6.278;2022-07-05T02:38:36;2.40;;;1.42;;
51862;SDS011;37900;52.996;6.278;2022-07-05T02:41:05;2.53;;;1.80;;
51862;SDS011;37900;52.996;6.278;2022-07-05T02:43:32;2.10;;;1.35;;
51862;SDS011;37900;52.996;6.278;2022-07-05T02:45:59;3.17;;;1.75;;
51862;SDS011;37900;52.996;6.278;2022-07-05T02:48:25;1.58;;;1.30;;
51862;SDS011;37900;52.996;6.278;2022-07-05T02:50:51;2.13;;;1.35;;
51862;SDS011;37900;52.996;6.278;2022-07-05T02:53:17;3.10;;;1.60;;
51862;SDS011;37900;52.996;6.278;2022-07-05T02:55:43;2.22;;;1.75;;
51862;SDS011;37900;52.996;6.278;2022-07-05T02:58:08;1.98;;;1.52;;
51862;SDS011;37900;52.996;6.278;2022-07-05T03:00:34;2.00;;;1.42;;
51862;SDS011;37900;52.996;6.278;2022-07-05T03:03:00;2.13;;;1.70;;
51862;SDS011;37900;52.996;6.278;2022-07-05T03:05:26;2.65;;;1.40;;
51862;SDS011;37900;52.996;6.278;2022-07-05T03:07:51;2.38;;;1.67;;
51862;SDS011;37900;52.996;6.278;2022-07-05T03:10:17;1.83;;;1.65;;
51862;SDS011;37900;52.996;6.278;2022-07-05T03:12:43;1.60;;;1.30;;
51862;SDS011;37900;52.996;6.278;2022-07-05T03:15:08;2.97;;;1.33;;
51862;SDS011;37900;52.996;6.278;2022-07-05T03:17:35;1.73;;;1.40;;
51862;SDS011;37900;52.996;6.278;2022-07-05T03:20:00;2.00;;;1.38;;
51862;SDS011;37900;52.996;6.278;2022-07-05T03:22:26;2.33;;;1.60;;
51862;SDS011;37900;52.996;6.278;2022-07-05T03:24:52;1.85;;;1.52;;
51862;SDS011;37900;52.996;6.278;2022-07-05T03:27:17;2.47;;;1.60;;
51862;SDS011;37900;52.996;6.278;2022-07-05T03:29:43;2.42;;;1.90;;
51862;SDS011;37900;52.996;6.278;2022-07-05T03:32:09;1.15;;;1.05;;
51862;SDS011;37900;52.996;6.278;2022-07-05T03:34:35;1.77;;;1.60;;
51862;SDS011;37900;52.996;6.278;2022-07-05T03:37:01;2.30;;;1.85;;
51862;SDS011;37900;52.996;6.278;2022-07-05T03:39:27;1.92;;;1.52;;
51862;SDS011;37900;52.996;6.278;2022-07-05T03:41:52;1.73;;;1.20;;
51862;SDS011;37900;52.996;6.278;2022-07-05T03:44:18;2.13;;;1.30;;
51862;SDS011;37900;52.996;6.278;2022-07-05T03:46:44;3.30;;;1.45;;
51862;SDS011;37900;52.996;6.278;2022-07-05T03:49:10;2.05;;;1.40;;
51862;SDS011;37900;52.996;6.278;2022-07-05T03:51:35;2.47;;;1.77;;
51862;SDS011;37900;52.996;6.278;2022-07-05T03:54:01;1.73;;;1.40;;
51862;SDS011;37900;52.996;6.278;2022-07-05T03:56:27;1.87;;;1.40;;
51862;SDS011;37900;52.996;6.278;2022-07-05T03:58:53;2.28;;;1.45;;
51862;SDS011;37900;52.996;6.278;2022-07-05T04:01:19;1.98;;;1.40;;
51862;SDS011;37900;52.996;6.278;2022-07-05T04:03:45;1.98;;;1.38;;
51862;SDS011;37900;52.996;6.278;2022-07-05T04:06:10;2.05;;;1.60;;
51862;SDS011;37900;52.996;6.278;2022-07-05T04:08:37;1.50;;;1.08;;
51862;SDS011;37900;52.996;6.278;2022-07-05T04:11:03;1.75;;;1.35;;
51862;SDS011;37900;52.996;6.278;2022-07-05T04:13:29;1.98;;;1.40;;
51862;SDS011;37900;52.996;6.278;2022-07-05T04:15:55;3.55;;;1.40;;
51862;SDS011;37900;52.996;6.278;2022-07-05T04:18:21;1.42;;;1.33;;
51862;SDS011;37900;52.996;6.278;2022-07-05T04:20:47;1.38;;;1.15;;
51862;SDS011;37900;52.996;6.278;2022-07-05T04:23:13;1.70;;;1.27;;
51862;SDS011;37900;52.996;6.278;2022-07-05T04:25:39;1.17;;;1.08;;
51862;SDS011;37900;52.996;6.278;2022-07-05T04:28:04;2.38;;;1.48;;
51862;SDS011;37900;52.996;6.278;2022-07-05T04:30:30;1.58;;;1.05;;
51862;SDS011;37900;52.996;6.278;2022-07-05T04:32:56;1.40;;;1.25;;
51862;SDS011;37900;52.996;6.278;2022-07-05T04:35:22;2.78;;;1.58;;
51862;SDS011;37900;52.996;6.278;2022-07-05T04:37:48;2.67;;;1.30;;
51862;SDS011;37900;52.996;6.278;2022-07-05T04:40:14;2.08;;;1.58;;
51862;SDS011;37900;52.996;6.278;2022-07-05T04:42:40;1.33;;;1.23;;
51862;SDS011;37900;52.996;6.278;2022-07-05T04:45:06;1.45;;;1.10;;
51862;SDS011;37900;52.996;6.278;2022-07-05T04:47:33;1.50;;;1.15;;
51862;SDS011;37900;52.996;6.278;2022-07-05T04:50:02;1.88;;;1.35;;
51862;SDS011;37900;52.996;6.278;2022-07-05T04:52:29;3.95;;;1.50;;
51862;SDS011;37900;52.996;6.278;2022-07-05T04:54:56;1.20;;;1.10;;
51862;SDS011;37900;52.996;6.278;2022-07-05T04:57:21;1.92;;;1.40;;
51862;SDS011;37900;52.996;6.278;2022-07-05T04:59:47;1.52;;;1.42;;
51862;SDS011;37900;52.996;6.278;2022-07-05T05:02:13;1.13;;;1.02;;
51862;SDS011;37900;52.996;6.278;2022-07-05T05:04:39;1.77;;;1.23;;
51862;SDS011;37900;52.996;6.278;2022-07-05T05:07:05;1.65;;;1.27;;
51862;SDS011;37900;52.996;6.278;2022-07-05T05:09:30;2.60;;;1.40;;
51862;SDS011;37900;52.996;6.278;2022-07-05T05:11:56;1.05;;;0.98;;
51862;SDS011;37900;52.996;6.278;2022-07-05T05:14:22;2.20;;;1.40;;
51862;SDS011;37900;52.996;6.278;2022-07-05T05:16:48;2.03;;;1.23;;
51862;SDS011;37900;52.996;6.278;2022-07-05T05:19:14;1.55;;;1.30;;
51862;SDS011;37900;52.996;6.278;2022-07-05T05:21:40;2.05;;;1.25;;
51862;SDS011;37900;52.996;6.278;2022-07-05T05:24:06;1.35;;;1.02;;
51862;SDS011;37900;52.996;6.278;2022-07-05T05:26:32;1.98;;;1.17;;
51862;SDS011;37900;52.996;6.278;2022-07-05T05:28:58;1.42;;;0.98;;
51862;SDS011;37900;52.996;6.278;2022-07-05T05:31:23;1.48;;;1.10;;
51862;SDS011;37900;52.996;6.278;2022-07-05T05:33:49;2.17;;;1.50;;
51862;SDS011;37900;52.996;6.278;2022-07-05T05:36:15;1.98;;;1.58;;
51862;SDS011;37900;52.996;6.278;2022-07-05T05:38:40;1.40;;;1.30;;
51862;SDS011;37900;52.996;6.278;2022-07-05T05:41:06;1.17;;;1.08;;
51862;SDS011;37900;52.996;6.278;2022-07-05T05:43:32;1.63;;;1.08;;
51862;SDS011;37900;52.996;6.278;2022-07-05T05:45:58;1.70;;;1.47;;
51862;SDS011;37900;52.996;6.278;2022-07-05T05:48:24;1.40;;;1.30;;
51862;SDS011;37900;52.996;6.278;2022-07-05T05:50:50;1.17;;;1.08;;
51862;SDS011;37900;52.996;6.278;2022-07-05T05:53:17;1.50;;;1.20;;
51862;SDS011;37900;52.996;6.278;2022-07-05T05:55:43;1.98;;;1.40;;
51862;SDS011;37900;52.996;6.278;2022-07-05T05:58:13;2.42;;;1.52;;
51862;SDS011;37900;52.996;6.278;2022-07-05T06:00:43;1.75;;;1.40;;
51862;SDS011;37900;52.996;6.278;2022-07-05T06:03:13;2.28;;;1.65;;
51862;SDS011;37900;52.996;6.278;2022-07-05T06:05:39;2.95;;;1.65;;
51862;SDS011;37900;52.996;6.278;2022-07-05T06:08:05;2.35;;;1.77;;
51862;SDS011;37900;52.996;6.278;2022-07-05T06:10:32;2.25;;;1.77;;
51862;SDS011;37900;52.996;6.278;2022-07-05T06:13:01;3.08;;;1.63;;
51862;SDS011;37900;52.996;6.278;2022-07-05T06:15:29;4.65;;;2.15;;
51862;SDS011;37900;52.996;6.278;2022-07-05T06:17:55;2.67;;;2.10;;
51862;SDS011;37900;52.996;6.278;2022-07-05T06:20:22;3.60;;;2.10;;
51862;SDS011;37900;52.996;6.278;2022-07-05T06:22:49;5.10;;;2.30;;
51862;SDS011;37900;52.996;6.278;2022-07-05T06:25:16;5.03;;;2.80;;
51862;SDS011;37900;52.996;6.278;2022-07-05T06:27:43;3.60;;;2.22;;
51862;SDS011;37900;52.996;6.278;2022-07-05T06:30:12;3.80;;;2.30;;
51862;SDS011;37900;52.996;6.278;2022-07-05T06:32:39;4.47;;;2.00;;
51862;SDS011;37900;52.996;6.278;2022-07-05T06:35:05;3.33;;;2.78;;
51862;SDS011;37900;52.996;6.278;2022-07-05T06:40:17;3.15;;;2.00;;
51862;SDS011;37900;52.996;6.278;2022-07-05T06:42:44;2.33;;;1.50;;
51862;SDS011;37900;52.996;6.278;2022-07-05T06:45:10;3.72;;;1.77;;
51862;SDS011;37900;52.996;6.278;2022-07-05T06:47:36;3.63;;;2.00;;
51862;SDS011;37900;52.996;6.278;2022-07-05T06:50:03;4.10;;;1.95;;
51862;SDS011;37900;52.996;6.278;2022-07-05T06:52:30;2.72;;;1.80;;
51862;SDS011;37900;52.996;6.278;2022-07-05T06:54:57;5.20;;;1.70;;
51862;SDS011;37900;52.996;6.278;2022-07-05T06:57:26;3.15;;;1.90;;
51862;SDS011;37900;52.996;6.278;2022-07-05T06:59:52;2.70;;;1.75;;
51862;SDS011;37900;52.996;6.278;2022-07-05T07:02:17;4.47;;;1.98;;
51862;SDS011;37900;52.996;6.278;2022-07-05T07:04:47;3.00;;;1.75;;
51862;SDS011;37900;52.996;6.278;2022-07-05T07:07:13;2.28;;;1.50;;
51862;SDS011;37900;52.996;6.278;2022-07-05T07:09:58;3.65;;;1.95;;
51862;SDS011;37900;52.996;6.278;2022-07-05T07:12:25;3.28;;;2.00;;
51862;SDS011;37900;52.996;6.278;2022-07-05T07:14:51;3.08;;;1.95;;
51862;SDS011;37900;52.996;6.278;2022-07-05T07:17:17;2.20;;;1.67;;
51862;SDS011;37900;52.996;6.278;2022-07-05T07:19:42;3.80;;;1.50;;
51862;SDS011;37900;52.996;6.278;2022-07-05T07:22:08;1.92;;;1.42;;
51862;SDS011;37900;52.996;6.278;2022-07-05T07:24:34;2.95;;;1.80;;
51862;SDS011;37900;52.996;6.278;2022-07-05T07:27:00;1.45;;;1.33;;
51862;SDS011;37900;52.996;6.278;2022-07-05T07:29:29;2.45;;;1.65;;
51862;SDS011;37900;52.996;6.278;2022-07-05T07:31:58;2.28;;;1.95;;
51862;SDS011;37900;52.996;6.278;2022-07-05T07:34:26;3.60;;;1.83;;
51862;SDS011;37900;52.996;6.278;2022-07-05T07:36:52;2.60;;;1.60;;
51862;SDS011;37900;52.996;6.278;2022-07-05T07:39:19;2.72;;;1.75;;
51862;SDS011;37900;52.996;6.278;2022-07-05T07:41:45;2.42;;;1.88;;
51862;SDS011;37900;52.996;6.278;2022-07-05T07:44:11;2.20;;;1.80;;
51862;SDS011;37900;52.996;6.278;2022-07-05T07:46:37;2.55;;;1.50;;
51862;SDS011;37900;52.996;6.278;2022-07-05T07:49:06;2.15;;;1.70;;
51862;SDS011;37900;52.996;6.278;2022-07-05T07:51:32;3.08;;;2.05;;
51862;SDS011;37900;52.996;6.278;2022-07-05T07:53:59;1.60;;;1.30;;
51862;SDS011;37900;52.996;6.278;2022-07-05T07:56:25;2.83;;;1.83;;
51862;SDS011;37900;52.996;6.278;2022-07-05T07:58:51;2.97;;;1.83;;
51862;SDS011;37900;52.996;6.278;2022-07-05T08:01:17;2.22;;;1.40;;
51862;SDS011;37900;52.996;6.278;2022-07-05T08:03:43;2.45;;;1.52;;
51862;SDS011;37900;52.996;6.278;2022-07-05T08:06:09;2.80;;;1.50;;
51862;SDS011;37900;52.996;6.278;2022-07-05T08:08:40;2.25;;;1.42;;
51862;SDS011;37900;52.996;6.278;2022-07-05T08:11:08;2.30;;;1.63;;
51862;SDS011;37900;52.996;6.278;2022-07-05T08:13:35;2.55;;;1.63;;
51862;SDS011;37900;52.996;6.278;2022-07-05T08:16:01;2.85;;;1.73;;
51862;SDS011;37900;52.996;6.278;2022-07-05T08:18:27;2.97;;;1.48;;
51862;SDS011;37900;52.996;6.278;2022-07-05T08:21:11;3.17;;;2.00;;
51862;SDS011;37900;52.996;6.278;2022-07-05T08:23:56;2.90;;;1.63;;
51862;SDS011;37900;52.996;6.278;2022-07-05T08:26:22;2.33;;;1.67;;
51862;SDS011;37900;52.996;6.278;2022-07-05T08:28:48;3.55;;;2.00;;
51862;SDS011;37900;52.996;6.278;2022-07-05T08:31:13;2.97;;;1.55;;
51862;SDS011;37900;52.996;6.278;2022-07-05T08:33:39;2.20;;;1.50;;
51862;SDS011;37900;52.996;6.278;2022-07-05T08:36:05;2.53;;;1.50;;
51862;SDS011;37900;52.996;6.278;2022-07-05T08:38:31;1.25;;;1.10;;
51862;SDS011;37900;52.996;6.278;2022-07-05T08:40:57;1.70;;;1.30;;
51862;SDS011;37900;52.996;6.278;2022-07-05T08:43:22;2.50;;;1.55;;
51862;SDS011;37900;52.996;6.278;2022-07-05T08:45:54;2.33;;;1.45;;
51862;SDS011;37900;52.996;6.278;2022-07-05T08:48:21;2.03;;;1.45;;
51862;SDS011;37900;52.996;6.278;2022-07-05T08:50:50;1.85;;;1.40;;
51862;SDS011;37900;52.996;6.278;2022-07-05T08:53:18;1.73;;;1.45;;
51862;SDS011;37900;52.996;6.278;2022-07-05T08:55:44;2.75;;;1.35;;
51862;SDS011;37900;52.996;6.278;2022-07-05T08:58:10;2.28;;;1.42;;
51862;SDS011;37900;52.996;6.278;2022-07-05T09:00:37;2.30;;;1.48;;
51862;SDS011;37900;52.996;6.278;2022-07-05T09:03:05;2.15;;;1.52;;
51862;SDS011;37900;52.996;6.278;2022-07-05T09:05:31;2.80;;;1.50;;
51862;SDS011;37900;52.996;6.278;2022-07-05T09:08:09;1.80;;;1.50;;
51862;SDS011;37900;52.996;6.278;2022-07-05T09:10:39;1.77;;;1.23;;
51862;SDS011;37900;52.996;6.278;2022-07-05T09:13:07;2.30;;;1.60;;
51862;SDS011;37900;52.996;6.278;2022-07-05T09:15:33;2.90;;;1.58;;
51862;SDS011;37900;52.996;6.278;2022-07-05T09:17:59;2.72;;;1.35;;
51862;SDS011;37900;52.996;6.278;2022-07-05T09:20:25;2.50;;;1.63;;
51862;SDS011;37900;52.996;6.278;2022-07-05T09:27:49;1.83;;;1.42;;
51862;SDS011;37900;52.996;6.278;2022-07-05T09:30:26;3.08;;;1.40;;
51862;SDS011;37900;52.996;6.278;2022-07-05T09:35:40;1.60;;;1.50;;
51862;SDS011;37900;52.996;6.278;2022-07-05T09:38:17;2.42;;;1.20;;
51862;SDS011;37900;52.996;6.278;2022-07-05T09:43:17;2.03;;;1.48;;
51862;SDS011;37900;52.996;6.278;2022-07-05T09:48:21;2.85;;;1.40;;
51862;SDS011;37900;52.996;6.278;2022-07-05T09:50:47;2.58;;;1.65;;
51862;SDS011;37900;52.996;6.278;2022-07-05T09:53:14;1.70;;;1.08;;
51862;SDS011;37900;52.996;6.278;2022-07-05T09:55:40;2.15;;;1.25;;
51862;SDS011;37900;52.996;6.278;2022-07-05T09:58:08;2.10;;;1.20;;
51862;SDS011;37900;52.996;6.278;2022-07-05T10:00:37;2.97;;;1.38;;
51862;SDS011;37900;52.996;6.278;2022-07-05T10:03:03;1.92;;;1.30;;
51862;SDS011;37900;52.996;6.278;2022-07-05T10:05:29;3.40;;;1.48;;
51862;SDS011;37900;52.996;6.278;2022-07-05T10:07:58;1.65;;;1.35;;
51862;SDS011;37900;52.996;6.278;2022-07-05T10:10:25;3.40;;;1.38;;
51862;SDS011;37900;52.996;6.278;2022-07-05T10:13:02;1.38;;;1.00;;
51862;SDS011;37900;52.996;6.278;2022-07-05T10:15:30;2.28;;;1.40;;
51862;SDS011;37900;52.996;6.278;2022-07-05T10:18:07;2.97;;;1.60;;
51862;SDS011;37900;52.996;6.278;2022-07-05T10:23:06;1.95;;;1.30;;
51862;SDS011;37900;52.996;6.278;2022-07-05T10:25:35;1.88;;;1.25;;
51862;SDS011;37900;52.996;6.278;2022-07-05T10:28:02;1.40;;;1.20;;
51862;SDS011;37900;52.996;6.278;2022-07-05T10:32:55;3.05;;;1.52;;
51862;SDS011;37900;52.996;6.278;2022-07-05T10:35:21;1.73;;;1.40;;
51862;SDS011;37900;52.996;6.278;2022-07-05T10:37:48;2.28;;;1.42;;
51862;SDS011;37900;52.996;6.278;2022-07-05T10:40:14;1.30;;;1.20;;
51862;SDS011;37900;52.996;6.278;2022-07-05T10:50:46;2.20;;;1.20;;
51862;SDS011;37900;52.996;6.278;2022-07-05T10:53:16;1.73;;;1.20;;
51862;SDS011;37900;52.996;6.278;2022-07-05T10:55:47;1.67;;;1.08;;
51862;SDS011;37900;52.996;6.278;2022-07-05T11:00:41;1.27;;;1.00;;
51862;SDS011;37900;52.996;6.278;2022-07-05T11:03:08;1.60;;;1.20;;
51862;SDS011;37900;52.996;6.278;2022-07-05T11:06:00;2.97;;;1.02;;
51862;SDS011;37900;52.996;6.278;2022-07-05T11:08:30;2.88;;;1.20;;
51862;SDS011;37900;52.996;6.278;2022-07-05T11:11:16;2.97;;;1.20;;
51862;SDS011;37900;52.996;6.278;2022-07-05T11:13:48;1.10;;;1.00;;
51862;SDS011;37900;52.996;6.278;2022-07-05T11:16:24;1.38;;;1.00;;
51862;SDS011;37900;52.996;6.278;2022-07-05T11:19:13;1.52;;;1.00;;
51862;SDS011;37900;52.996;6.278;2022-07-05T11:21:38;2.20;;;1.30;;
51862;SDS011;37900;52.996;6.278;2022-07-05T11:24:36;1.75;;;0.88;;
51862;SDS011;37900;52.996;6.278;2022-07-05T11:27:03;3.70;;;1.17;;
51862;SDS011;37900;52.996;6.278;2022-07-05T11:32:21;2.40;;;1.20;;
51862;SDS011;37900;52.996;6.278;2022-07-05T11:35:19;1.23;;;1.08;;
51862;SDS011;37900;52.996;6.278;2022-07-05T11:40:33;2.00;;;1.10;;
51862;SDS011;37900;52.996;6.278;2022-07-05T11:43:03;1.10;;;1.00;;
51862;SDS011;37900;52.996;6.278;2022-07-05T11:45:32;3.13;;;1.45;;
51862;SDS011;37900;52.996;6.278;2022-07-05T11:47:58;1.48;;;0.93;;
51862;SDS011;37900;52.996;6.278;2022-07-05T11:50:25;2.25;;;1.20;;
51862;SDS011;37900;52.996;6.278;2022-07-05T11:52:56;3.40;;;0.98;;
51862;SDS011;37900;52.996;6.278;2022-07-05T11:55:23;1.23;;;0.90;;
51862;SDS011;37900;52.996;6.278;2022-07-05T11:57:52;3.88;;;1.17;;
51862;SDS011;37900;52.996;6.278;2022-07-05T12:03:19;2.85;;;1.10;;
51862;SDS011;37900;52.996;6.278;2022-07-05T12:05:44;2.45;;;1.20;;
51862;SDS011;37900;52.996;6.278;2022-07-05T12:08:10;1.35;;;0.80;;
51862;SDS011;37900;52.996;6.278;2022-07-05T12:10:36;2.03;;;0.98;;
51862;SDS011;37900;52.996;6.278;2022-07-05T12:13:20;0.63;;;0.60;;
51862;SDS011;37900;52.996;6.278;2022-07-05T12:15:47;1.83;;;1.27;;
51862;SDS011;37900;52.996;6.278;2022-07-05T12:18:12;1.15;;;1.05;;
51862;SDS011;37900;52.996;6.278;2022-07-05T12:20:40;1.20;;;1.08;;
51862;SDS011;37900;52.996;6.278;2022-07-05T12:23:06;2.03;;;1.23;;
51862;SDS011;37900;52.996;6.278;2022-07-05T12:25:33;1.13;;;1.03;;
51862;SDS011;37900;52.996;6.278;2022-07-05T12:30:29;1.73;;;0.90;;
51862;SDS011;37900;52.996;6.278;2022-07-05T12:35:36;1.60;;;0.93;;
51862;SDS011;37900;52.996;6.278;2022-07-05T12:38:09;1.23;;;0.98;;
51862;SDS011;37900;52.996;6.278;2022-07-05T12:40:36;0.75;;;0.75;;
51862;SDS011;37900;52.996;6.278;2022-07-05T12:43:40;1.05;;;0.95;;
51862;SDS011;37900;52.996;6.278;2022-07-05T12:46:12;1.10;;;0.75;;
51862;SDS011;37900;52.996;6.278;2022-07-05T12:48:38;1.33;;;0.90;;
51862;SDS011;37900;52.996;6.278;2022-07-05T12:51:05;0.65;;;0.65;;
51862;SDS011;37900;52.996;6.278;2022-07-05T12:53:32;1.60;;;1.05;;
51862;SDS011;37900;52.996;6.278;2022-07-05T12:56:21;0.98;;;0.88;;
51862;SDS011;37900;52.996;6.278;2022-07-05T12:59:07;1.13;;;0.93;;
51862;SDS011;37900;52.996;6.278;2022-07-05T13:01:36;1.88;;;0.88;;
51862;SDS011;37900;52.996;6.278;2022-07-05T13:04:11;1.20;;;1.00;;
51862;SDS011;37900;52.996;6.278;2022-07-05T13:06:48;0.70;;;0.70;;
51862;SDS011;37900;52.996;6.278;2022-07-05T13:12:13;1.25;;;0.90;;
51862;SDS011;37900;52.996;6.278;2022-07-05T13:14:45;3.00;;;1.17;;
51862;SDS011;37900;52.996;6.278;2022-07-05T13:17:16;1.10;;;0.63;;
51862;SDS011;37900;52.996;6.278;2022-07-05T13:19:43;2.90;;;1.10;;
51862;SDS011;37900;52.996;6.278;2022-07-05T13:22:11;0.70;;;0.70;;
51862;SDS011;37900;52.996;6.278;2022-07-05T13:24:37;1.45;;;0.98;;
51862;SDS011;37900;52.996;6.278;2022-07-05T13:27:03;2.15;;;0.82;;
51862;SDS011;37900;52.996;6.278;2022-07-05T13:29:30;0.82;;;0.82;;
51862;SDS011;37900;52.996;6.278;2022-07-05T13:31:56;1.15;;;0.90;;
51862;SDS011;37900;52.996;6.278;2022-07-05T13:34:22;1.17;;;1.00;;
51862;SDS011;37900;52.996;6.278;2022-07-05T13:36:51;1.13;;;0.75;;
51862;SDS011;37900;52.996;6.278;2022-07-05T13:39:18;1.20;;;0.80;;
51862;SDS011;37900;52.996;6.278;2022-07-05T13:41:46;1.83;;;0.77;;
51862;SDS011;37900;52.996;6.278;2022-07-05T13:44:12;1.25;;;0.85;;
51862;SDS011;37900;52.996;6.278;2022-07-05T13:46:38;1.52;;;0.98;;
51862;SDS011;37900;52.996;6.278;2022-07-05T13:49:04;1.35;;;1.00;;
51862;SDS011;37900;52.996;6.278;2022-07-05T13:51:29;1.38;;;0.90;;
51862;SDS011;37900;52.996;6.278;2022-07-05T13:53:55;1.13;;;0.88;;
51862;SDS011;37900;52.996;6.278;2022-07-05T13:56:21;0.95;;;0.60;;
51862;SDS011;37900;52.996;6.278;2022-07-05T13:58:47;0.80;;;0.80;;
51862;SDS011;37900;52.996;6.278;2022-07-05T14:01:13;1.40;;;1.00;;
51862;SDS011;37900;52.996;6.278;2022-07-05T14:03:39;1.35;;;1.10;;
51862;SDS011;37900;52.996;6.278;2022-07-05T14:06:05;2.08;;;0.85;;
51862;SDS011;37900;52.996;6.278;2022-07-05T14:08:31;0.70;;;0.70;;
51862;SDS011;37900;52.996;6.278;2022-07-05T14:10:57;0.90;;;0.80;;
51862;SDS011;37900;52.996;6.278;2022-07-05T14:13:24;1.27;;;0.88;;
51862;SDS011;37900;52.996;6.278;2022-07-05T14:18:18;2.75;;;1.00;;
51862;SDS011;37900;52.996;6.278;2022-07-05T14:20:45;1.27;;;1.00;;
51862;SDS011;37900;52.996;6.278;2022-07-05T14:25:42;1.45;;;0.90;;
51862;SDS011;37900;52.996;6.278;2022-07-05T14:28:08;0.95;;;0.68;;
51862;SDS011;37900;52.996;6.278;2022-07-05T14:30:34;1.10;;;1.00;;
51862;SDS011;37900;52.996;6.278;2022-07-05T14:33:01;2.05;;;0.82;;
51862;SDS011;37900;52.996;6.278;2022-07-05T14:35:28;2.08;;;1.00;;
51862;SDS011;37900;52.996;6.278;2022-07-05T14:37:54;0.80;;;0.80;;
51862;SDS011;37900;52.996;6.278;2022-07-05T14:40:20;1.73;;;0.70;;
51862;SDS011;37900;52.996;6.278;2022-07-05T14:42:48;1.35;;;0.82;;
51862;SDS011;37900;52.996;6.278;2022-07-05T14:45:14;1.13;;;0.90;;
51862;SDS011;37900;52.996;6.278;2022-07-05T14:47:40;1.10;;;1.00;;
51862;SDS011;37900;52.996;6.278;2022-07-05T14:50:06;1.42;;;0.80;;
51862;SDS011;37900;52.996;6.278;2022-07-05T14:52:32;0.90;;;0.80;;
51862;SDS011;37900;52.996;6.278;2022-07-05T14:54:57;0.90;;;0.80;;
51862;SDS011;37900;52.996;6.278;2022-07-05T14:57:23;1.08;;;0.88;;
51862;SDS011;37900;52.996;6.278;2022-07-05T14:59:49;1.33;;;0.75;;
51862;SDS011;37900;52.996;6.278;2022-07-05T15:02:14;1.05;;;0.90;;
51862;SDS011;37900;52.996;6.278;2022-07-05T15:04:40;1.02;;;0.82;;
51862;SDS011;37900;52.996;6.278;2022-07-05T15:07:06;1.25;;;0.88;;
51862;SDS011;37900;52.996;6.278;2022-07-05T15:09:32;0.93;;;0.88;;
51862;SDS011;37900;52.996;6.278;2022-07-05T15:11:58;1.00;;;0.90;;
51862;SDS011;37900;52.996;6.278;2022-07-05T15:14:24;0.73;;;0.70;;
51862;SDS011;37900;52.996;6.278;2022-07-05T15:16:53;0.70;;;0.70;;
51862;SDS011;37900;52.996;6.278;2022-07-05T15:19:19;0.85;;;0.80;;
51862;SDS011;37900;52.996;6.278;2022-07-05T15:21:45;0.80;;;0.80;;
51862;SDS011;37900;52.996;6.278;2022-07-05T15:24:11;2.38;;;0.95;;
51862;SDS011;37900;52.996;6.278;2022-07-05T15:26:37;1.27;;;1.17;;
51862;SDS011;37900;52.996;6.278;2022-07-05T15:29:03;1.77;;;0.90;;
51862;SDS011;37900;52.996;6.278;2022-07-05T15:31:31;1.67;;;0.80;;
51862;SDS011;37900;52.996;6.278;2022-07-05T15:33:58;1.48;;;0.88;;
51862;SDS011;37900;52.996;6.278;2022-07-05T15:36:25;1.03;;;0.70;;
51862;SDS011;37900;52.996;6.278;2022-07-05T15:38:54;1.52;;;0.95;;
51862;SDS011;37900;52.996;6.278;2022-07-05T15:41:20;1.13;;;0.90;;
51862;SDS011;37900;52.996;6.278;2022-07-05T15:43:46;0.65;;;0.65;;
51862;SDS011;37900;52.996;6.278;2022-07-05T15:46:12;0.97;;;0.90;;
51862;SDS011;37900;52.996;6.278;2022-07-05T15:48:38;1.17;;;0.97;;